createdAt,value
2018-10-21T00:00:31.771Z,0
2018-10-21T00:03:32.076Z,0
2018-10-21T00:06:32.043Z,0
2018-10-21T00:09:32.117Z,0
2018-10-21T00:12:31.995Z,0
2018-10-21T00:15:32.547Z,0
2018-10-21T00:18:32.242Z,0
2018-10-21T00:21:32.418Z,0
2018-10-21T00:24:31.477Z,0
2018-10-21T00:27:31.977Z,0
2018-10-21T00:30:32.120Z,0
2018-10-21T00:33:32.278Z,0
2018-10-21T00:36:32.197Z,0
2018-10-21T00:39:32.288Z,0
2018-10-21T00:42:32.377Z,0
2018-10-21T00:45:31.193Z,0
2018-10-21T00:48:32.009Z,0
2018-10-21T00:51:31.732Z,0
2018-10-21T00:54:31.768Z,0
2018-10-21T00:57:31.641Z,0
2018-10-21T01:00:31.496Z,0
2018-10-21T01:03:31.416Z,0
2018-10-21T01:06:31.062Z,0
2018-10-21T01:09:32.024Z,0
2018-10-21T01:12:31.672Z,0
2018-10-21T01:15:31.702Z,0
2018-10-21T01:18:31.440Z,0
2018-10-21T01:21:32.444Z,0
2018-10-21T01:24:32.165Z,0
2018-10-21T01:27:32.201Z,0
2018-10-21T01:30:31.905Z,0
2018-10-21T01:33:31.880Z,0
2018-10-21T01:36:32.956Z,0
2018-10-21T01:40:29.156Z,0
2018-10-21T01:42:31.870Z,0
2018-10-21T01:45:32.213Z,0
2018-10-21T01:48:33.327Z,0
2018-10-21T01:51:32.339Z,0
2018-10-21T01:54:32.148Z,0
2018-10-21T01:57:32.120Z,0
2018-10-21T02:00:32.825Z,0
2018-10-21T02:03:31.963Z,0
2018-10-21T02:06:31.574Z,0
2018-10-21T02:09:31.484Z,0
2018-10-21T02:12:31.423Z,0
2018-10-21T02:15:32.399Z,0
2018-10-21T02:18:31.579Z,0
2018-10-21T02:21:31.915Z,0
2018-10-21T02:24:31.937Z,0
2018-10-21T02:27:32.090Z,0
2018-10-21T02:30:33.199Z,0
2018-10-21T02:33:32.935Z,0
2018-10-21T02:36:32.239Z,0
2018-10-21T02:39:32.195Z,0
2018-10-21T02:42:32.097Z,0
2018-10-21T02:45:32.170Z,0
2018-10-21T02:48:32.234Z,0
2018-10-21T02:51:32.397Z,0
2018-10-21T02:54:33.197Z,0
2018-10-21T02:57:32.141Z,0
2018-10-21T03:00:31.722Z,0
2018-10-21T03:03:32.120Z,0
2018-10-21T03:06:32.033Z,0
2018-10-21T03:09:32.295Z,0
2018-10-21T03:12:32.118Z,0
2018-10-21T03:15:31.974Z,0
2018-10-21T03:18:32.839Z,0
2018-10-21T03:21:31.965Z,0
2018-10-21T03:24:31.845Z,0
2018-10-21T03:27:31.644Z,0
2018-10-21T03:30:31.682Z,0
2018-10-21T03:33:32.393Z,0
2018-10-21T03:36:31.396Z,0
2018-10-21T03:39:32.305Z,0
2018-10-21T03:42:32.094Z,0
2018-10-21T03:45:32.527Z,0
2018-10-21T03:48:31.184Z,0
2018-10-21T03:51:32.116Z,0
2018-10-21T03:54:31.917Z,0
2018-10-21T03:57:32.026Z,0
2018-10-21T04:00:32.040Z,0
2018-10-21T04:03:32.023Z,0
2018-10-21T04:06:32.075Z,0
2018-10-21T04:09:32.163Z,0
2018-10-21T04:12:32.074Z,0
2018-10-21T04:15:32.034Z,0
2018-10-21T04:18:31.856Z,0
2018-10-21T04:21:31.994Z,0
2018-10-21T04:24:31.975Z,0
2018-10-21T04:27:32.128Z,0
2018-10-21T04:30:33.158Z,0
2018-10-21T04:33:50.562Z,0
2018-10-21T04:36:36.147Z,0
2018-10-21T04:40:36.961Z,0
2018-10-21T04:42:32.042Z,0
2018-10-21T04:45:31.978Z,0
2018-10-21T04:48:32.131Z,0
2018-10-21T04:51:32.196Z,0
2018-10-21T04:54:40.380Z,0
2018-10-21T04:57:32.299Z,0
2018-10-21T05:00:32.537Z,0
2018-10-21T05:03:31.938Z,0
2018-10-21T05:06:32.194Z,0
2018-10-21T05:09:32.082Z,0
2018-10-21T05:12:32.353Z,0
2018-10-21T05:15:34.284Z,0
2018-10-21T05:18:31.407Z,0
2018-10-21T05:21:31.687Z,0
2018-10-21T05:24:31.694Z,0
2018-10-21T05:27:32.009Z,1
2018-10-21T05:30:32.017Z,2
2018-10-21T05:33:32.147Z,2
2018-10-21T05:36:32.193Z,6
2018-10-21T05:39:32.237Z,10
2018-10-21T05:42:32.169Z,18
2018-10-21T05:45:32.143Z,30
2018-10-21T05:48:32.389Z,47
2018-10-21T05:51:32.191Z,70
2018-10-21T05:54:32.315Z,100
2018-10-21T05:57:40.022Z,138
2018-10-21T06:00:32.255Z,184
2018-10-21T06:03:32.649Z,234
2018-10-21T06:06:32.062Z,290
2018-10-21T06:09:32.140Z,354
2018-10-21T06:12:32.284Z,418
2018-10-21T06:15:32.273Z,455
2018-10-21T06:18:34.315Z,509
2018-10-21T06:21:32.237Z,579
2018-10-21T06:24:32.433Z,662
2018-10-21T06:27:31.345Z,818
2018-10-21T06:30:32.508Z,1222
2018-10-21T06:33:31.769Z,1317
2018-10-21T06:36:32.139Z,1320
2018-10-21T06:39:32.275Z,1549
2018-10-21T06:42:32.177Z,1630
2018-10-21T06:45:32.525Z,1710
2018-10-21T06:48:32.348Z,1856
2018-10-21T06:51:31.844Z,1882
2018-10-21T06:54:36.927Z,2024
2018-10-21T06:57:32.741Z,2228
2018-10-21T07:00:32.487Z,2266
2018-10-21T07:03:31.305Z,2371
2018-10-21T07:06:34.156Z,2470
2018-10-21T07:09:32.138Z,2587
2018-10-21T07:12:34.864Z,2698
2018-10-21T07:15:33.549Z,2817
2018-10-21T07:18:33.048Z,3038
2018-10-21T07:21:32.604Z,3167
2018-10-21T07:24:33.641Z,2818
2018-10-21T07:27:33.795Z,2723
2018-10-21T07:30:38.344Z,3298
2018-10-21T07:33:32.740Z,3533
2018-10-21T07:36:32.610Z,3746
2018-10-21T07:39:34.407Z,3896
2018-10-21T07:42:32.915Z,4075
2018-10-21T07:45:55.197Z,5398
2018-10-21T07:48:41.615Z,4594
2018-10-21T07:51:34.009Z,4949
2018-10-21T07:54:33.551Z,5302
2018-10-21T07:57:32.457Z,5647
2018-10-21T08:00:37.223Z,5990
2018-10-21T08:03:33.475Z,6430
2018-10-21T08:08:51.705Z,7040
2018-10-21T08:09:32.886Z,20451
2018-10-21T08:12:34.622Z,24712
2018-10-21T08:15:35.689Z,30063
2018-10-21T08:18:33.575Z,32458
2018-10-21T08:21:32.151Z,31326
2018-10-21T08:24:32.804Z,32267
2018-10-21T08:27:33.001Z,35343
2018-10-21T08:30:32.596Z,42302
2018-10-21T08:33:37.283Z,41321
2018-10-21T08:36:32.274Z,35231
2018-10-21T08:39:32.406Z,39339
2018-10-21T08:42:32.394Z,43494
2018-10-21T08:45:32.483Z,27887
2018-10-21T08:48:31.661Z,32154
2018-10-21T08:51:31.912Z,32704
2018-10-21T08:54:32.094Z,39848
2018-10-21T08:57:32.210Z,38299
2018-10-21T09:00:32.071Z,37988
2018-10-21T09:03:32.038Z,41976
2018-10-21T09:06:32.145Z,43981
2018-10-21T09:09:32.182Z,44853
2018-10-21T09:12:32.445Z,46606
2018-10-21T09:15:34.072Z,54612
2018-10-21T09:18:32.229Z,43436
2018-10-21T09:21:32.214Z,40049
2018-10-21T09:24:32.195Z,50828
2018-10-21T09:27:32.356Z,54612
2018-10-21T09:30:32.425Z,54612
2018-10-21T09:33:32.528Z,41334
2018-10-21T09:36:31.625Z,54612
2018-10-21T09:39:32.014Z,54612
2018-10-21T09:42:32.316Z,54612
2018-10-21T09:45:32.749Z,54612
2018-10-21T09:48:32.103Z,54612
2018-10-21T09:51:32.068Z,54612
2018-10-21T09:54:32.174Z,54612
2018-10-21T09:57:32.444Z,54612
2018-10-21T10:02:40.040Z,51336
2018-10-21T10:03:32.139Z,54612
2018-10-21T10:06:31.989Z,54612
2018-10-21T10:09:32.107Z,54612
2018-10-21T10:12:32.266Z,54612
2018-10-21T10:15:32.376Z,54612
2018-10-21T10:18:31.718Z,12152
2018-10-21T10:21:31.765Z,12013
2018-10-21T10:24:31.802Z,11957
2018-10-21T10:27:31.941Z,12199
2018-10-21T10:30:32.525Z,12903
2018-10-21T10:33:32.110Z,13593
2018-10-21T10:36:31.950Z,13626
2018-10-21T10:39:32.824Z,13502
2018-10-21T10:42:32.090Z,24375
2018-10-21T10:45:32.200Z,54612
2018-10-21T10:48:32.616Z,54612
2018-10-21T10:51:32.033Z,54612
2018-10-21T10:54:41.384Z,54612
2018-10-21T10:57:37.650Z,51818
2018-10-21T11:00:33.390Z,40103
2018-10-21T11:03:31.450Z,54612
2018-10-21T11:06:31.788Z,54612
2018-10-21T11:09:32.090Z,54612
2018-10-21T11:12:32.007Z,54612
2018-10-21T11:15:32.162Z,54612
2018-10-21T11:18:32.280Z,7751
2018-10-21T11:21:32.679Z,7598
2018-10-21T11:24:32.705Z,7571
2018-10-21T11:27:31.654Z,7564
2018-10-21T11:30:31.616Z,7533
2018-10-21T11:33:31.728Z,7626
2018-10-21T11:36:31.886Z,8037
2018-10-21T11:39:31.929Z,7848
2018-10-21T11:42:32.292Z,6892
2018-10-21T11:45:40.764Z,6843
2018-10-21T11:48:40.604Z,6808
2018-10-21T11:51:31.559Z,6731
2018-10-21T11:54:31.853Z,6704
2018-10-21T11:57:31.892Z,6657
2018-10-21T12:00:32.144Z,6514
2018-10-21T12:03:32.084Z,6405
2018-10-21T12:06:32.322Z,6287
2018-10-21T12:09:32.353Z,6178
2018-10-21T12:12:32.936Z,6100
2018-10-21T12:15:31.922Z,5992
2018-10-21T12:18:32.068Z,5877
2018-10-21T12:21:32.303Z,5787
2018-10-21T12:24:32.590Z,5758
2018-10-21T12:27:31.385Z,5696
2018-10-21T12:30:32.470Z,5705
2018-10-21T12:33:31.556Z,5654
2018-10-21T12:36:32.056Z,5592
2018-10-21T12:39:32.343Z,5545
2018-10-21T12:42:32.763Z,5545
2018-10-21T12:45:32.016Z,5503
2018-10-21T12:48:32.442Z,5437
2018-10-21T12:51:32.327Z,5348
2018-10-21T12:54:33.050Z,5281
2018-10-21T12:57:32.228Z,5254
2018-10-21T13:00:32.265Z,5215
2018-10-21T13:03:32.266Z,5192
2018-10-21T13:06:32.828Z,5131
2018-10-21T13:09:32.065Z,5060
2018-10-21T13:12:33.688Z,5068
2018-10-21T13:15:31.879Z,5042
2018-10-21T13:18:32.119Z,4975
2018-10-21T13:21:32.141Z,4922
2018-10-21T13:24:32.272Z,4882
2018-10-21T13:27:32.718Z,4826
2018-10-21T13:30:31.842Z,4737
2018-10-21T13:33:31.702Z,4644
2018-10-21T13:36:31.609Z,4577
2018-10-21T13:39:32.005Z,4464
2018-10-21T13:42:32.614Z,4408
2018-10-21T13:45:31.639Z,4321
2018-10-21T13:48:31.674Z,4232
2018-10-21T13:51:31.835Z,4149
2018-10-21T13:54:31.749Z,4046
2018-10-21T13:57:31.758Z,3954
2018-10-21T14:00:32.289Z,3882
2018-10-21T14:03:31.485Z,3797
2018-10-21T14:06:31.418Z,3690
2018-10-21T14:09:31.522Z,3642
2018-10-21T14:12:31.725Z,3530
2018-10-21T14:15:31.855Z,3439
2018-10-21T14:18:32.405Z,3356
2018-10-21T14:21:33.189Z,3277
2018-10-21T14:24:32.250Z,3181
2018-10-21T14:27:31.804Z,3108
2018-10-21T14:30:32.787Z,3008
2018-10-21T14:33:32.213Z,2917
2018-10-21T14:36:32.394Z,2848
2018-10-21T14:39:32.275Z,2782
2018-10-21T14:42:32.256Z,2707
2018-10-21T14:45:32.532Z,2626
2018-10-21T14:48:31.661Z,2553
2018-10-21T14:51:31.855Z,2476
2018-10-21T14:54:32.047Z,2408
2018-10-21T14:57:32.098Z,2325
2018-10-21T15:00:32.581Z,2246
2018-10-21T15:03:32.595Z,2189
2018-10-21T15:06:32.013Z,2115
2018-10-21T15:09:32.128Z,2042
2018-10-21T15:12:32.441Z,1972
2018-10-21T15:15:32.505Z,1896
2018-10-21T15:18:31.745Z,1821
2018-10-21T15:21:31.962Z,1745
2018-10-21T15:24:31.948Z,1682
2018-10-21T15:27:31.910Z,1610
2018-10-21T15:30:32.531Z,1547
2018-10-21T15:33:31.896Z,1481
2018-10-21T15:36:31.949Z,1401
2018-10-21T15:39:32.096Z,1321
2018-10-21T15:42:32.393Z,1238
2018-10-21T15:45:31.380Z,1168
2018-10-21T15:48:31.565Z,1086
2018-10-21T15:51:31.523Z,986
2018-10-21T15:54:31.643Z,908
2018-10-21T15:57:31.899Z,798
2018-10-21T16:00:32.000Z,722
2018-10-21T16:03:32.286Z,656
2018-10-21T16:06:32.009Z,567
2018-10-21T16:09:32.422Z,493
2018-10-21T16:12:32.516Z,413
2018-10-21T16:15:31.757Z,352
2018-10-21T16:18:43.880Z,295
2018-10-21T16:21:32.000Z,238
2018-10-21T16:24:32.213Z,193
2018-10-21T16:27:32.038Z,150
2018-10-21T16:30:32.076Z,114
2018-10-21T16:33:32.617Z,82
2018-10-21T16:36:31.498Z,57
2018-10-21T16:39:31.993Z,38
2018-10-21T16:42:32.673Z,23
2018-10-21T16:45:32.180Z,14
2018-10-21T16:48:32.407Z,8
2018-10-21T16:51:31.605Z,4
2018-10-21T16:54:32.633Z,2
2018-10-21T16:57:32.038Z,2
2018-10-21T17:00:33.394Z,1
2018-10-21T17:03:32.424Z,0
2018-10-21T17:06:47.130Z,0
2018-10-21T17:09:33.574Z,0
2018-10-21T17:12:32.841Z,0
2018-10-21T17:21:02.571Z,0
2018-10-21T17:21:32.342Z,0
2018-10-21T17:24:32.696Z,0
2018-10-21T17:28:14.602Z,0
2018-10-21T17:30:33.086Z,0
2018-10-21T17:33:31.747Z,0
2018-10-21T17:37:24.757Z,0
2018-10-21T17:40:01.755Z,0
2018-10-21T17:42:35.567Z,0
2018-10-21T17:45:46.928Z,0
2018-10-21T17:48:48.001Z,0
2018-10-21T17:51:32.703Z,0
2018-10-21T17:54:31.914Z,0
2018-10-21T17:57:32.567Z,0
2018-10-21T18:00:48.080Z,0
2018-10-21T18:03:32.340Z,0
2018-10-21T18:06:32.357Z,0
2018-10-21T18:09:31.497Z,0
2018-10-21T18:12:32.320Z,0
2018-10-21T18:16:12.969Z,0
2018-10-21T18:19:46.247Z,0
2018-10-21T18:21:32.951Z,0
2018-10-21T18:24:31.922Z,0
2018-10-21T18:28:14.892Z,0
2018-10-21T18:30:33.474Z,0
2018-10-21T18:33:31.755Z,0
2018-10-21T18:37:38.698Z,0
2018-10-21T18:39:33.200Z,0
2018-10-21T18:42:32.537Z,0
2018-10-21T18:45:31.908Z,0
2018-10-21T18:48:32.070Z,0
2018-10-21T18:51:37.435Z,0
2018-10-21T18:54:32.260Z,0
2018-10-21T18:57:32.734Z,0
2018-10-21T19:00:32.332Z,0
2018-10-21T19:03:33.165Z,0
2018-10-21T19:06:32.420Z,0
2018-10-21T19:09:57.856Z,0
2018-10-21T19:12:36.577Z,0
2018-10-21T19:15:36.936Z,0
2018-10-21T19:18:32.259Z,0
2018-10-21T19:21:46.018Z,0
2018-10-21T19:24:32.840Z,0
2018-10-21T19:27:32.133Z,0
2018-10-21T19:30:32.795Z,0
2018-10-21T19:33:32.228Z,0
2018-10-21T19:37:17.745Z,0
2018-10-21T19:39:31.856Z,0
2018-10-21T19:42:32.427Z,0
2018-10-21T19:45:31.758Z,0
2018-10-21T19:48:32.256Z,0
2018-10-21T19:51:32.258Z,0
2018-10-21T19:54:31.905Z,0
2018-10-21T19:57:31.994Z,0
2018-10-21T20:00:33.646Z,0
2018-10-21T20:03:31.620Z,0
2018-10-21T20:12:31.758Z,0
2018-10-21T20:15:31.756Z,0
2018-10-21T20:18:31.845Z,0
2018-10-21T20:21:32.567Z,0
2018-10-21T20:24:31.888Z,0
2018-10-21T20:27:32.227Z,0
2018-10-21T20:30:31.932Z,0
2018-10-21T20:33:31.813Z,0
2018-10-21T20:36:31.855Z,0
2018-10-21T20:42:32.196Z,0
2018-10-21T20:45:32.246Z,0
2018-10-21T20:48:32.377Z,0
2018-10-21T20:51:33.080Z,0
2018-10-21T20:54:51.261Z,0
2018-10-21T20:57:32.002Z,0
2018-10-21T21:00:32.287Z,0
2018-10-21T21:03:32.506Z,0
2018-10-21T21:06:31.563Z,0
2018-10-21T21:09:30.642Z,0
2018-10-21T21:12:31.809Z,0
2018-10-21T21:15:30.992Z,0
2018-10-21T21:18:32.319Z,0
2018-10-21T21:21:32.247Z,0
2018-10-21T21:24:32.699Z,0
2018-10-21T21:27:32.249Z,0
2018-10-21T21:30:32.738Z,0
2018-10-21T21:33:31.867Z,0
2018-10-21T21:36:32.092Z,0
2018-10-21T21:39:31.773Z,0
2018-10-21T21:42:31.352Z,0
2018-10-21T21:45:32.259Z,0
2018-10-21T21:48:31.953Z,0
2018-10-21T21:51:31.648Z,0
2018-10-21T21:54:31.274Z,0
2018-10-21T21:57:31.987Z,0
2018-10-21T22:00:31.766Z,0
2018-10-21T22:03:31.733Z,0
2018-10-21T22:06:31.596Z,0
2018-10-21T22:09:31.620Z,0
2018-10-21T22:12:32.049Z,0
2018-10-21T22:15:32.247Z,0
2018-10-21T22:18:31.672Z,0
2018-10-21T22:21:32.201Z,0
2018-10-21T22:24:31.660Z,0
2018-10-21T22:27:31.429Z,0
2018-10-21T22:30:32.234Z,0
2018-10-21T22:33:32.673Z,0
2018-10-21T22:36:31.866Z,0
2018-10-21T22:39:36.783Z,0
2018-10-21T22:42:40.727Z,0
2018-10-21T22:54:11.227Z,0
2018-10-21T22:54:27.465Z,0
2018-10-21T22:57:30.943Z,0
2018-10-21T23:00:32.228Z,0
2018-10-21T23:03:31.849Z,0
2018-10-21T23:06:31.152Z,0
2018-10-21T23:09:31.800Z,0
2018-10-21T23:12:31.667Z,0
2018-10-21T23:15:31.186Z,0
2018-10-21T23:18:32.168Z,0
2018-10-21T23:21:31.846Z,0
2018-10-21T23:24:31.336Z,0
2018-10-21T23:27:32.115Z,0
2018-10-21T23:30:31.622Z,0
2018-10-21T23:33:31.173Z,0
2018-10-21T23:36:31.610Z,0
2018-10-21T23:39:31.535Z,0
2018-10-21T23:42:30.974Z,0
2018-10-21T23:45:31.677Z,0
2018-10-21T23:48:30.949Z,0
2018-10-21T23:51:31.944Z,0
2018-10-21T23:54:31.308Z,0
2018-10-21T23:57:32.072Z,0
